createdAt,value
2019-05-15T00:02:18.424Z,4.33
2019-05-15T00:04:49.178Z,5.37
2019-05-15T00:07:18.465Z,6.37
2019-05-15T00:09:49.157Z,6.17
2019-05-15T00:12:19.006Z,6.40
2019-05-15T00:14:48.546Z,7.00
2019-05-15T00:17:19.177Z,5.67
2019-05-15T00:19:48.730Z,6.27
2019-05-15T00:22:18.346Z,5.53
2019-05-15T00:24:48.832Z,5.77
2019-05-15T00:27:20.223Z,6.30
2019-05-15T00:29:49.054Z,4.87
2019-05-15T00:32:18.593Z,9.67
2019-05-15T00:34:48.793Z,4.97
2019-05-15T00:37:18.308Z,5.80
2019-05-15T00:39:48.664Z,5.47
2019-05-15T00:42:18.970Z,6.33
2019-05-15T00:44:49.362Z,3.97
2019-05-15T00:47:18.646Z,5.47
2019-05-15T00:49:48.761Z,4.23
2019-05-15T00:52:18.169Z,4.67
2019-05-15T00:54:48.407Z,6.30
2019-05-15T00:57:19.260Z,7.90
2019-05-15T00:59:48.588Z,3.93
2019-05-15T01:02:17.931Z,5.40
2019-05-15T01:04:47.974Z,5.17
2019-05-15T01:07:18.818Z,5.60
2019-05-15T01:09:48.701Z,5.90
2019-05-15T01:12:18.517Z,6.00
2019-05-15T01:14:49.036Z,4.17
2019-05-15T01:17:18.518Z,8.10
2019-05-15T01:19:48.200Z,7.37
2019-05-15T01:22:19.516Z,7.43
2019-05-15T01:24:48.624Z,7.90
2019-05-15T01:27:18.409Z,6.23
2019-05-15T01:29:49.330Z,4.93
2019-05-15T01:32:19.182Z,6.70
2019-05-15T01:34:49.029Z,4.47
2019-05-15T01:37:18.878Z,5.10
2019-05-15T01:39:48.636Z,6.03
2019-05-15T01:42:18.639Z,7.70
2019-05-15T01:44:48.431Z,5.07
2019-05-15T01:47:19.032Z,5.90
2019-05-15T01:49:49.081Z,6.27
2019-05-15T01:52:18.765Z,6.77
2019-05-15T01:54:48.876Z,5.27
2019-05-15T01:57:18.236Z,6.43
2019-05-15T01:59:57.122Z,6.77
2019-05-15T02:02:18.777Z,8.93
2019-05-15T02:04:48.696Z,6.43
2019-05-15T02:07:18.662Z,6.43
2019-05-15T02:09:49.214Z,5.60
2019-05-15T02:12:19.117Z,5.90
2019-05-15T02:14:48.605Z,6.37
2019-05-15T02:17:18.978Z,5.93
2019-05-15T02:19:48.570Z,7.20
2019-05-15T02:22:18.942Z,6.63
2019-05-15T02:24:48.833Z,5.33
2019-05-15T02:27:18.609Z,7.40
2019-05-15T02:29:49.345Z,5.40
2019-05-15T02:32:19.483Z,6.07
2019-05-15T02:34:50.055Z,6.60
2019-05-15T02:37:19.564Z,5.93
2019-05-15T02:39:49.571Z,6.30
2019-05-15T02:42:19.324Z,6.20
2019-05-15T02:44:49.956Z,7.33
2019-05-15T02:47:20.074Z,6.40
2019-05-15T02:49:49.344Z,6.07
2019-05-15T02:52:19.888Z,6.07
2019-05-15T02:54:49.942Z,6.17
2019-05-15T02:57:19.351Z,7.77
2019-05-15T02:59:49.821Z,6.13
2019-05-15T03:02:19.478Z,6.03
2019-05-15T03:04:48.836Z,5.87
2019-05-15T03:07:19.294Z,7.30
2019-05-15T03:09:49.662Z,7.30
2019-05-15T03:12:19.748Z,5.90
2019-05-15T03:14:49.231Z,7.17
2019-05-15T03:17:19.157Z,6.40
2019-05-15T03:19:49.754Z,7.77
2019-05-15T03:22:19.638Z,5.77
2019-05-15T03:24:50.327Z,8.90
2019-05-15T03:27:20.033Z,7.90
2019-05-15T03:29:49.532Z,6.50
2019-05-15T03:32:32.281Z,7.07
2019-05-15T03:34:56.369Z,6.53
2019-05-15T03:37:22.059Z,6.77
2019-05-15T03:39:52.056Z,7.83
2019-05-15T03:42:21.235Z,7.07
2019-05-15T03:44:50.390Z,6.37
2019-05-15T03:47:19.886Z,6.70
2019-05-15T03:49:49.522Z,8.30
2019-05-15T03:52:19.269Z,6.87
2019-05-15T03:54:49.508Z,8.20
2019-05-15T03:57:22.756Z,7.77
2019-05-15T03:59:49.701Z,7.87
2019-05-15T04:02:19.407Z,8.03
2019-05-15T04:04:50.155Z,7.87
2019-05-15T04:07:19.688Z,7.27
2019-05-15T04:09:49.443Z,6.57
2019-05-15T04:12:19.668Z,9.57
2019-05-15T04:14:50.021Z,8.07
2019-05-15T04:17:19.886Z,6.80
2019-05-15T04:19:49.786Z,9.33
2019-05-15T04:22:19.893Z,7.07
2019-05-15T04:24:50.469Z,7.87
2019-05-15T04:27:20.664Z,7.23
2019-05-15T04:29:49.711Z,6.80
2019-05-15T04:32:20.025Z,9.60
2019-05-15T04:34:49.526Z,7.23
2019-05-15T04:37:19.047Z,7.77
2019-05-15T04:39:49.088Z,7.57
2019-05-15T04:42:20.188Z,7.40
2019-05-15T04:44:49.749Z,8.27
2019-05-15T04:47:19.308Z,9.67
2019-05-15T04:49:50.322Z,6.37
2019-05-15T04:52:19.855Z,8.27
2019-05-15T04:54:49.413Z,9.23
2019-05-15T04:57:19.489Z,7.57
2019-05-15T04:59:49.685Z,6.37
2019-05-15T05:02:26.701Z,9.77
2019-05-15T05:04:49.991Z,7.07
2019-05-15T05:07:19.589Z,7.77
2019-05-15T05:09:49.093Z,7.73
2019-05-15T05:12:19.291Z,12.13
2019-05-15T05:14:48.849Z,8.07
2019-05-15T05:17:19.544Z,7.00
2019-05-15T05:19:51.268Z,7.10
2019-05-15T05:22:19.672Z,10.13
2019-05-15T05:24:48.858Z,7.20
2019-05-15T05:27:18.229Z,8.93
2019-05-15T05:29:48.051Z,8.17
2019-05-15T05:32:30.911Z,9.97
2019-05-15T05:34:48.371Z,9.73
2019-05-15T05:37:18.492Z,9.87
2019-05-15T05:39:48.347Z,7.13
2019-05-15T05:42:18.534Z,6.70
2019-05-15T05:44:48.876Z,8.03
2019-05-15T05:47:18.452Z,11.47
2019-05-15T05:49:48.797Z,7.90
2019-05-15T05:52:18.619Z,9.33
2019-05-15T05:54:48.991Z,7.33
2019-05-15T05:57:19.323Z,7.70
2019-05-15T05:59:49.067Z,8.23
2019-05-15T06:02:18.752Z,7.83
2019-05-15T06:04:48.035Z,8.53
2019-05-15T06:07:38.392Z,8.87
2019-05-15T06:10:08.823Z,9.27
2019-05-15T06:12:38.898Z,11.83
2019-05-15T06:15:09.108Z,7.13
2019-05-15T06:17:39.353Z,6.90
2019-05-15T06:20:08.973Z,7.17
2019-05-15T06:22:38.690Z,7.93
2019-05-15T06:25:11.339Z,8.30
2019-05-15T06:27:39.400Z,7.73
2019-05-15T06:30:10.987Z,8.83
2019-05-15T06:32:40.168Z,6.93
2019-05-15T06:35:09.987Z,6.83
2019-05-15T06:37:39.813Z,5.87
2019-05-15T06:40:09.276Z,5.23
2019-05-15T06:42:41.455Z,6.90
2019-05-15T06:45:10.844Z,6.17
2019-05-15T06:47:40.112Z,7.47
2019-05-15T06:50:09.770Z,6.43
2019-05-15T06:52:38.906Z,5.70
2019-05-15T06:55:09.424Z,6.50
2019-05-15T06:57:39.665Z,11.97
2019-05-15T07:00:09.457Z,8.13
2019-05-15T07:02:38.574Z,7.47
2019-05-15T07:05:08.311Z,5.30
2019-05-15T07:07:38.585Z,7.83
2019-05-15T07:10:09.193Z,5.47
2019-05-15T07:12:39.230Z,6.93
2019-05-15T07:15:09.318Z,7.30
2019-05-15T07:17:39.279Z,5.73
2019-05-15T07:20:09.350Z,5.07
2019-05-15T07:22:39.118Z,5.30
2019-05-15T07:25:09.456Z,6.30
2019-05-15T07:27:39.238Z,6.37
2019-05-15T07:30:12.097Z,4.80
2019-05-15T07:32:41.721Z,5.67
2019-05-15T07:35:11.099Z,4.57
2019-05-15T07:37:40.185Z,3.80
2019-05-15T07:40:10.210Z,6.40
2019-05-15T07:42:39.353Z,5.83
2019-05-15T07:45:09.387Z,5.03
2019-05-15T07:47:39.009Z,6.00
2019-05-15T07:50:09.554Z,4.33
2019-05-15T07:52:39.665Z,4.63
2019-05-15T07:55:10.557Z,3.73
2019-05-15T07:57:39.863Z,4.67
2019-05-15T08:00:11.754Z,4.67
2019-05-15T08:02:41.049Z,4.07
2019-05-15T08:05:10.968Z,4.40
2019-05-15T08:07:40.498Z,4.43
2019-05-15T08:10:10.168Z,3.60
2019-05-15T08:12:39.465Z,4.00
2019-05-15T08:15:10.656Z,5.33
2019-05-15T08:17:59.187Z,4.03
2019-05-15T08:20:11.563Z,2.60
2019-05-15T08:22:40.753Z,3.37
2019-05-15T08:25:20.696Z,2.67
2019-05-15T08:27:42.377Z,3.57
2019-05-15T08:30:14.940Z,6.30
2019-05-15T08:32:48.482Z,3.00
2019-05-15T08:35:19.182Z,2.87
2019-05-15T08:37:49.018Z,2.97
2019-05-15T08:40:18.973Z,2.73
2019-05-15T08:42:56.898Z,4.93
2019-05-15T08:45:19.239Z,3.93
2019-05-15T08:47:49.166Z,2.63
2019-05-15T08:50:19.466Z,4.00
2019-05-15T08:52:48.896Z,3.37
2019-05-15T08:55:20.176Z,2.67
2019-05-15T08:57:55.662Z,4.20
2019-05-15T09:00:21.017Z,4.30
2019-05-15T09:02:50.394Z,2.90
2019-05-15T09:05:21.766Z,3.73
2019-05-15T09:07:50.941Z,2.83
2019-05-15T09:10:20.327Z,4.00
2019-05-15T09:12:50.366Z,3.67
2019-05-15T09:15:21.312Z,2.50
2019-05-15T09:17:50.499Z,4.13
2019-05-15T09:20:19.709Z,3.73
2019-05-15T09:22:49.202Z,3.30
2019-05-15T09:25:19.419Z,4.30
2019-05-15T09:27:48.937Z,3.03
2019-05-15T09:30:18.528Z,5.13
2019-05-15T09:32:48.472Z,4.23
2019-05-15T09:35:21.418Z,3.97
2019-05-15T09:37:50.531Z,4.13
2019-05-15T09:40:19.888Z,2.80
2019-05-15T09:42:49.236Z,3.60
2019-05-15T09:45:19.017Z,4.13
2019-05-15T09:47:48.555Z,5.83
2019-05-15T09:50:19.289Z,4.40
2019-05-15T09:52:50.129Z,2.63
2019-05-15T09:55:19.877Z,3.90
2019-05-15T09:57:49.214Z,3.63
2019-05-15T10:00:20.562Z,3.87
2019-05-15T10:02:50.000Z,4.63
2019-05-15T10:05:19.164Z,4.03
2019-05-15T10:07:48.227Z,4.63
2019-05-15T10:10:19.219Z,5.57
2019-05-15T10:12:49.440Z,4.53
2019-05-15T10:15:18.968Z,4.60
2019-05-15T10:17:50.894Z,3.70
2019-05-15T10:20:20.214Z,3.10
2019-05-15T10:22:49.274Z,3.80
2019-05-15T10:25:19.021Z,3.13
2019-05-15T10:27:48.946Z,3.73
2019-05-15T10:30:19.042Z,6.57
2019-05-15T10:32:48.827Z,4.13
2019-05-15T10:35:25.781Z,3.23
2019-05-15T10:37:49.366Z,3.77
2019-05-15T10:40:20.497Z,4.23
2019-05-15T10:42:49.831Z,2.50
2019-05-15T10:45:19.463Z,3.07
2019-05-15T10:47:50.188Z,4.73
2019-05-15T10:50:19.839Z,3.53
2019-05-15T10:52:49.061Z,4.90
2019-05-15T10:55:19.076Z,5.00
2019-05-15T10:57:48.394Z,3.47
2019-05-15T11:00:20.847Z,4.53
2019-05-15T11:02:51.057Z,3.93
2019-05-15T11:05:21.518Z,5.30
2019-05-15T11:07:51.658Z,5.90
2019-05-15T11:10:41.847Z,4.47
2019-05-15T11:13:10.838Z,4.60
2019-05-15T11:15:43.705Z,4.23
2019-05-15T11:18:12.949Z,3.30
2019-05-15T11:20:41.980Z,4.93
2019-05-15T11:23:19.489Z,3.90
2019-05-15T11:25:48.807Z,3.23
2019-05-15T11:28:18.076Z,2.37
2019-05-15T11:30:48.966Z,4.17
2019-05-15T11:33:18.947Z,2.53
2019-05-15T11:36:07.824Z,3.70
2019-05-15T11:38:38.168Z,3.97
2019-05-15T11:41:08.731Z,2.67
2019-05-15T11:43:38.693Z,4.17
2019-05-15T11:46:09.874Z,2.93
2019-05-15T11:48:39.465Z,4.73
2019-05-15T11:51:09.574Z,4.53
2019-05-15T11:53:40.709Z,5.60
2019-05-15T11:56:10.033Z,3.43
2019-05-15T11:58:39.193Z,3.00
2019-05-15T12:01:08.848Z,4.07
2019-05-15T12:03:38.721Z,4.87
2019-05-15T12:06:18.060Z,5.17
2019-05-15T12:08:39.047Z,4.60
2019-05-15T12:11:11.963Z,6.30
2019-05-15T12:13:39.079Z,4.37
2019-05-15T12:16:08.405Z,4.60
2019-05-15T12:18:38.984Z,5.83
2019-05-15T12:21:08.346Z,3.37
2019-05-15T12:23:38.736Z,3.73
2019-05-15T12:26:09.137Z,3.73
2019-05-15T12:28:40.545Z,3.60
2019-05-15T12:31:09.503Z,9.00
2019-05-15T12:33:38.735Z,4.63
2019-05-15T12:37:59.238Z,3.03
2019-05-15T12:38:39.981Z,2.63
2019-05-15T13:01:18.274Z,2.83
2019-05-15T13:03:48.642Z,5.30
2019-05-15T13:06:19.302Z,2.67
2019-05-15T13:08:49.021Z,5.77
2019-05-15T13:11:18.268Z,3.00
2019-05-15T13:13:48.504Z,6.03
2019-05-15T13:16:18.791Z,2.47
2019-05-15T13:18:48.144Z,3.13
2019-05-15T13:21:20.929Z,2.70
2019-05-15T13:23:48.292Z,3.33
2019-05-15T13:26:23.795Z,2.30
2019-05-15T13:28:48.954Z,3.30
2019-05-15T13:31:19.087Z,3.40
2019-05-15T13:33:48.318Z,2.27
2019-05-15T13:36:19.707Z,5.57
2019-05-15T13:38:48.417Z,3.77
2019-05-15T13:41:19.015Z,3.97
2019-05-15T13:43:49.287Z,3.20
2019-05-15T13:46:20.609Z,2.40
2019-05-15T13:48:50.587Z,2.70
2019-05-15T13:51:19.929Z,2.13
2019-05-15T13:53:49.203Z,2.67
2019-05-15T13:56:18.345Z,3.00
2019-05-15T13:58:48.071Z,3.50
2019-05-15T14:01:19.451Z,4.10
2019-05-15T14:03:48.439Z,4.50
2019-05-15T14:06:19.278Z,5.50
2019-05-15T14:08:48.831Z,5.23
2019-05-15T14:11:21.692Z,5.20
2019-05-15T14:13:49.466Z,6.20
2019-05-15T14:16:19.282Z,9.27
2019-05-15T14:18:48.580Z,7.97
2019-05-15T14:21:18.414Z,7.93
2019-05-15T14:23:47.960Z,6.37
2019-05-15T14:26:22.451Z,5.73
2019-05-15T14:28:48.282Z,5.30
2019-05-15T14:31:18.319Z,4.97
2019-05-15T14:33:48.769Z,5.63
2019-05-15T14:36:18.551Z,3.40
2019-05-15T14:38:48.652Z,5.10
2019-05-15T14:41:19.034Z,4.53
2019-05-15T14:43:48.534Z,5.33
2019-05-15T14:46:18.534Z,3.67
2019-05-15T14:48:49.011Z,4.03
2019-05-15T14:51:19.271Z,2.43
2019-05-15T14:53:49.134Z,3.50
2019-05-15T14:56:18.635Z,3.43
2019-05-15T14:58:48.139Z,3.77
2019-05-15T15:01:18.496Z,4.97
2019-05-15T15:03:48.789Z,5.83
2019-05-15T15:06:18.377Z,4.63
2019-05-15T15:08:50.511Z,5.17
2019-05-15T15:11:19.826Z,3.97
2019-05-15T15:13:48.897Z,4.10
2019-05-15T15:16:19.373Z,2.60
2019-05-15T15:18:48.557Z,3.50
2019-05-15T15:21:19.591Z,4.53
2019-05-15T15:23:48.312Z,4.90
2019-05-15T15:26:19.193Z,3.53
2019-05-15T15:28:49.041Z,3.93
2019-05-15T15:31:19.129Z,3.80
2019-05-15T15:33:48.679Z,3.53
2019-05-15T15:36:17.798Z,3.43
2019-05-15T15:38:48.410Z,3.57
2019-05-15T15:41:17.757Z,4.07
2019-05-15T15:43:48.482Z,4.53
2019-05-15T15:46:19.519Z,4.77
2019-05-15T15:48:48.880Z,6.40
2019-05-15T15:51:18.027Z,4.47
2019-05-15T15:53:48.135Z,3.90
2019-05-15T15:56:18.509Z,4.80
2019-05-15T15:58:48.881Z,6.00
2019-05-15T16:01:18.656Z,6.00
2019-05-15T16:03:48.390Z,6.77
2019-05-15T16:06:18.804Z,4.23
2019-05-15T16:08:53.106Z,3.37
2019-05-15T16:11:19.010Z,4.47
2019-05-15T16:13:49.734Z,7.83
2019-05-15T16:16:19.135Z,5.23
2019-05-15T16:18:49.191Z,3.40
2019-05-15T16:21:19.312Z,3.23
2019-05-15T16:23:48.629Z,4.30
2019-05-15T16:26:19.536Z,4.03
2019-05-15T16:28:49.062Z,3.60
2019-05-15T16:31:18.735Z,6.17
2019-05-15T16:33:48.158Z,3.30
2019-05-15T16:36:18.335Z,3.87
2019-05-15T16:38:48.247Z,3.30
2019-05-15T16:41:18.488Z,4.43
2019-05-15T16:43:48.507Z,3.00
2019-05-15T16:46:19.231Z,2.80
2019-05-15T16:48:49.422Z,3.67
2019-05-15T16:51:19.190Z,2.93
2019-05-15T16:53:48.926Z,4.70
2019-05-15T16:56:18.946Z,4.70
2019-05-15T16:58:48.540Z,3.17
2019-05-15T17:01:18.716Z,2.80
2019-05-15T17:03:48.553Z,4.07
2019-05-15T17:06:18.787Z,5.60
2019-05-15T17:08:48.800Z,4.03
2019-05-15T17:11:19.887Z,4.13
2019-05-15T17:13:49.041Z,4.80
2019-05-15T17:16:19.179Z,3.30
2019-05-15T17:18:48.625Z,4.23
2019-05-15T17:21:18.961Z,3.53
2019-05-15T17:23:48.963Z,3.47
2019-05-15T17:26:18.913Z,3.40
2019-05-15T17:28:48.246Z,4.57
2019-05-15T17:31:18.153Z,3.37
2019-05-15T17:33:48.949Z,3.00
2019-05-15T17:36:18.680Z,3.57
2019-05-15T17:38:48.788Z,4.00
2019-05-15T17:41:18.103Z,6.33
2019-05-15T17:43:48.568Z,3.30
2019-05-15T17:46:17.852Z,3.80
2019-05-15T17:48:54.068Z,3.30
2019-05-15T17:51:18.056Z,7.17
2019-05-15T17:53:48.813Z,3.10
2019-05-15T17:56:18.122Z,3.97
2019-05-15T17:58:48.720Z,4.43
2019-05-15T18:01:19.206Z,4.77
2019-05-15T18:03:48.763Z,4.93
2019-05-15T18:06:18.330Z,6.57
2019-05-15T18:08:48.566Z,3.83
2019-05-15T18:11:18.699Z,4.53
2019-05-15T18:13:48.668Z,3.40
2019-05-15T18:16:18.326Z,3.00
2019-05-15T18:18:47.977Z,3.63
2019-05-15T18:21:18.665Z,3.10
2019-05-15T18:23:48.646Z,4.23
2019-05-15T18:26:18.393Z,3.90
2019-05-15T18:28:48.932Z,3.40
2019-05-15T18:31:18.434Z,3.77
2019-05-15T18:33:54.368Z,5.20
2019-05-15T18:36:18.435Z,4.07
2019-05-15T18:38:48.237Z,4.70
2019-05-15T18:41:18.409Z,5.30
2019-05-15T18:43:48.381Z,5.53
2019-05-15T18:46:18.322Z,4.10
2019-05-15T18:48:48.556Z,3.50
2019-05-15T18:51:17.823Z,2.90
2019-05-15T18:53:48.192Z,4.47
2019-05-15T18:56:18.679Z,4.00
2019-05-15T18:58:48.531Z,4.60
2019-05-15T19:01:17.948Z,3.33
2019-05-15T19:03:47.139Z,5.40
2019-05-15T19:06:18.497Z,4.33
2019-05-15T19:08:47.224Z,4.13
2019-05-15T19:11:18.337Z,4.20
2019-05-15T19:13:48.147Z,4.90
2019-05-15T19:16:17.352Z,3.67
2019-05-15T19:18:47.942Z,3.13
2019-05-15T19:21:17.551Z,4.70
2019-05-15T19:23:47.786Z,3.50
2019-05-15T19:26:18.339Z,3.90
2019-05-15T19:28:48.610Z,4.30
2019-05-15T19:31:26.191Z,4.37
2019-05-15T19:33:49.385Z,3.40
2019-05-15T19:36:18.494Z,4.43
2019-05-15T19:38:48.062Z,5.03
2019-05-15T19:41:18.304Z,2.90
2019-05-15T19:43:48.724Z,3.43
2019-05-15T19:46:18.138Z,4.00
2019-05-15T19:48:48.969Z,4.67
2019-05-15T19:51:30.296Z,6.90
2019-05-15T19:53:59.740Z,4.73
2019-05-15T19:56:29.081Z,5.57
2019-05-15T19:58:58.317Z,4.50
2019-05-15T20:01:28.194Z,5.50
2019-05-15T20:03:59.060Z,5.37
2019-05-15T20:06:28.549Z,5.00
2019-05-15T20:09:00.007Z,7.43
2019-05-15T20:11:29.219Z,4.50
2019-05-15T20:13:58.480Z,6.00
2019-05-15T20:16:28.403Z,5.90
2019-05-15T20:18:58.190Z,5.63
2019-05-15T20:21:29.018Z,5.83
2019-05-15T20:23:58.138Z,5.07
2019-05-15T20:26:28.672Z,4.07
2019-05-15T20:28:57.867Z,4.37
2019-05-15T20:31:28.446Z,5.00
2019-05-15T20:34:05.653Z,7.10
2019-05-15T20:36:29.901Z,3.67
2019-05-15T20:38:59.427Z,5.20
2019-05-15T20:41:28.564Z,4.37
2019-05-15T20:43:58.307Z,4.70
2019-05-15T20:46:28.795Z,3.90
2019-05-15T20:48:58.221Z,4.77
2019-05-15T20:51:29.011Z,5.07
2019-05-15T20:53:58.045Z,4.93
2019-05-15T20:56:28.199Z,3.43
2019-05-15T20:58:58.244Z,2.90
2019-05-15T21:01:28.730Z,4.63
2019-05-15T21:04:01.012Z,5.13
2019-05-15T21:06:30.228Z,4.13
2019-05-15T21:08:59.226Z,2.30
2019-05-15T21:11:28.678Z,5.00
2019-05-15T21:13:58.204Z,4.10
2019-05-15T21:16:28.928Z,3.73
2019-05-15T21:19:00.244Z,3.67
2019-05-15T21:21:29.118Z,4.90
2019-05-15T21:24:00.875Z,4.30
2019-05-15T21:26:29.194Z,2.83
2019-05-15T21:28:58.731Z,4.63
2019-05-15T21:31:27.958Z,2.63
2019-05-15T21:33:58.843Z,3.40
2019-05-15T21:36:28.243Z,3.87
2019-05-15T21:38:58.750Z,3.70
2019-05-15T21:41:27.893Z,3.07
2019-05-15T21:43:59.287Z,5.03
2019-05-15T21:46:28.041Z,5.70
2019-05-15T21:48:58.156Z,3.40
2019-05-15T21:51:28.226Z,2.90
2019-05-15T21:53:58.208Z,4.73
2019-05-15T21:56:28.333Z,4.00
2019-05-15T21:58:58.137Z,3.87
2019-05-15T22:01:28.836Z,4.83
2019-05-15T22:03:58.935Z,3.73
2019-05-15T22:06:29.210Z,3.83
2019-05-15T22:08:58.647Z,3.60
2019-05-15T22:11:29.701Z,4.93
2019-05-15T22:13:58.822Z,5.90
2019-05-15T22:16:28.831Z,5.10
2019-05-15T22:18:58.319Z,4.20
2019-05-15T22:21:27.586Z,4.53
2019-05-15T22:23:59.953Z,5.53
2019-05-15T22:26:29.436Z,3.83
2019-05-15T22:28:58.855Z,6.37
2019-05-15T22:31:28.311Z,4.87
2019-05-15T22:33:58.515Z,3.73
2019-05-15T22:36:28.232Z,4.93
2019-05-15T22:38:59.340Z,5.53
2019-05-15T22:41:28.533Z,4.03
2019-05-15T22:43:58.148Z,6.53
2019-05-15T22:46:29.014Z,4.43
2019-05-15T22:48:59.027Z,5.80
2019-05-15T22:51:28.963Z,5.23
2019-05-15T22:53:58.517Z,5.90
2019-05-15T22:56:29.611Z,5.13
2019-05-15T22:58:58.584Z,5.60
2019-05-15T23:01:27.668Z,4.17
2019-05-15T23:03:58.356Z,6.57
2019-05-15T23:06:28.238Z,5.90
2019-05-15T23:09:06.414Z,6.47
2019-05-15T23:11:35.562Z,6.47
2019-05-15T23:14:04.625Z,4.20
2019-05-15T23:16:33.746Z,6.73
2019-05-15T23:19:03.122Z,6.53
2019-05-15T23:21:32.116Z,4.67
2019-05-15T23:24:01.160Z,4.77
2019-05-15T23:26:47.974Z,4.70
2019-05-15T23:29:17.018Z,6.70
2019-05-15T23:31:46.098Z,5.03
2019-05-15T23:34:15.480Z,6.13
2019-05-15T23:36:44.594Z,6.97
2019-05-15T23:39:13.690Z,5.13
2019-05-15T23:41:42.999Z,4.93
2019-05-15T23:44:12.093Z,5.10
2019-05-15T23:46:41.282Z,6.03
2019-05-15T23:49:10.325Z,6.00
2019-05-15T23:51:39.404Z,5.87
2019-05-15T23:54:08.509Z,5.93
2019-05-15T23:56:38.769Z,6.30
2019-05-15T23:59:08.508Z,6.33
